createdAt,value
2017-07-26T00:01:29.256Z,92.20
2017-07-26T00:03:55.512Z,92.30
2017-07-26T00:06:21.800Z,92.20
2017-07-26T00:08:48.069Z,92.20
2017-07-26T00:11:14.308Z,91.90
2017-07-26T00:13:40.561Z,91.90
2017-07-26T00:17:35.684Z,92.30
2017-07-26T00:20:01.973Z,92.20
2017-07-26T00:22:28.211Z,92.00
2017-07-26T00:24:54.461Z,92.30
2017-07-26T00:27:20.716Z,92.00
2017-07-26T00:29:46.973Z,92.30
2017-07-26T00:32:13.235Z,92.20
2017-07-26T00:34:39.484Z,92.30
2017-07-26T00:37:05.748Z,92.40
2017-07-26T00:39:31.987Z,92.30
2017-07-26T00:41:58.230Z,92.60
2017-07-26T00:44:24.490Z,92.80
2017-07-26T00:46:50.735Z,92.60
2017-07-26T00:49:16.987Z,92.70
2017-07-26T00:51:43.218Z,92.60
2017-07-26T00:54:09.532Z,92.70
2017-07-26T00:56:35.791Z,92.50
2017-07-26T00:59:02.113Z,92.50
2017-07-26T01:01:28.356Z,92.30
2017-07-26T01:03:54.923Z,92.50
2017-07-26T01:06:21.216Z,92.70
2017-07-26T01:08:47.472Z,92.30
2017-07-26T01:11:13.735Z,92.30
2017-07-26T01:13:39.987Z,92.30
2017-07-26T01:17:36.015Z,92.10
2017-07-26T01:20:02.291Z,92.10
2017-07-26T01:22:29.080Z,92.30
2017-07-26T01:24:55.332Z,92.10
2017-07-26T01:27:21.579Z,91.90
2017-07-26T01:29:47.832Z,92.30
2017-07-26T01:32:14.114Z,92.50
2017-07-26T01:34:40.390Z,92.50
2017-07-26T01:37:06.647Z,92.40
2017-07-26T01:39:32.905Z,92.10
2017-07-26T01:41:59.171Z,91.80
2017-07-26T01:44:25.465Z,91.90
2017-07-26T01:46:51.719Z,91.90
2017-07-26T01:49:17.986Z,92.10
2017-07-26T01:51:44.242Z,92.40
2017-07-26T01:54:10.491Z,92.10
2017-07-26T01:56:36.776Z,92.10
2017-07-26T01:59:03.048Z,92.10
2017-07-26T02:01:29.320Z,91.70
2017-07-26T02:03:55.581Z,91.70
2017-07-26T02:06:21.860Z,91.70
2017-07-26T02:08:48.119Z,91.70
2017-07-26T02:11:14.355Z,91.50
2017-07-26T02:13:40.585Z,91.90
2017-07-26T02:17:36.693Z,92.00
2017-07-26T02:20:02.984Z,91.70
2017-07-26T02:22:29.224Z,91.20
2017-07-26T02:24:55.463Z,91.30
2017-07-26T02:27:21.700Z,91.10
2017-07-26T02:29:47.972Z,90.80
2017-07-26T02:32:14.248Z,91.30
2017-07-26T02:34:40.497Z,91.40
2017-07-26T02:37:06.726Z,91.40
2017-07-26T02:39:32.980Z,91.20
2017-07-26T02:41:59.238Z,90.90
2017-07-26T02:44:25.499Z,90.50
2017-07-26T02:46:51.740Z,90.70
2017-07-26T02:49:18.000Z,90.80
2017-07-26T02:51:44.265Z,90.70
2017-07-26T02:54:10.547Z,91.10
2017-07-26T02:56:36.824Z,91.10
2017-07-26T02:59:03.063Z,91.30
2017-07-26T03:01:29.301Z,90.90
2017-07-26T03:03:55.548Z,90.90
2017-07-26T03:06:21.799Z,90.70
2017-07-26T03:08:48.097Z,90.80
2017-07-26T03:11:14.345Z,91.30
2017-07-26T03:13:40.595Z,91.10
2017-07-26T03:17:36.628Z,90.80
2017-07-26T03:20:02.880Z,90.60
2017-07-26T03:22:29.177Z,90.90
2017-07-26T03:24:55.420Z,90.90
2017-07-26T03:27:21.676Z,90.80
2017-07-26T03:29:47.907Z,90.60
2017-07-26T03:32:14.141Z,90.90
2017-07-26T03:34:40.408Z,91.20
2017-07-26T03:37:06.652Z,91.30
2017-07-26T03:39:32.907Z,91.30
2017-07-26T03:41:59.166Z,90.70
2017-07-26T03:44:25.424Z,90.60
2017-07-26T03:46:51.675Z,91.20
2017-07-26T03:49:17.941Z,90.80
2017-07-26T03:51:44.187Z,90.90
2017-07-26T03:54:10.460Z,91.50
2017-07-26T03:56:36.691Z,90.70
2017-07-26T03:59:02.956Z,90.70
2017-07-26T04:01:29.196Z,91.10
2017-07-26T04:03:55.435Z,91.20
2017-07-26T04:06:21.688Z,90.70
2017-07-26T04:08:47.942Z,90.60
2017-07-26T04:11:14.235Z,90.70
2017-07-26T04:13:40.473Z,90.50
2017-07-26T04:17:36.021Z,91.10
2017-07-26T04:20:02.278Z,90.70
2017-07-26T04:22:28.573Z,90.40
2017-07-26T04:24:54.852Z,90.30
2017-07-26T04:27:21.097Z,90.10
2017-07-26T04:29:47.363Z,90.30
2017-07-26T04:32:13.600Z,90.30
2017-07-26T04:34:39.858Z,90.40
2017-07-26T04:37:06.124Z,90.60
2017-07-26T04:39:32.365Z,90.20
2017-07-26T04:41:58.623Z,89.80
2017-07-26T04:44:24.859Z,90.00
2017-07-26T04:46:51.126Z,89.30
2017-07-26T04:49:17.373Z,89.90
2017-07-26T04:51:43.618Z,90.10
2017-07-26T04:54:09.869Z,90.10
2017-07-26T04:56:36.120Z,89.60
2017-07-26T04:59:02.401Z,90.20
2017-07-26T05:01:28.647Z,89.30
2017-07-26T05:03:54.904Z,89.60
2017-07-26T05:06:21.158Z,89.90
2017-07-26T05:08:47.430Z,89.90
2017-07-26T05:11:13.688Z,90.00
2017-07-26T05:13:39.932Z,90.10
2017-07-26T05:17:36.220Z,90.20
2017-07-26T05:20:02.468Z,90.20
2017-07-26T05:22:28.783Z,90.20
2017-07-26T05:24:55.020Z,90.20
2017-07-26T05:27:21.293Z,90.00
2017-07-26T05:29:47.569Z,89.70
2017-07-26T05:32:13.820Z,90.00
2017-07-26T05:34:40.071Z,90.20
2017-07-26T05:37:06.310Z,88.70
2017-07-26T05:39:32.592Z,90.00
2017-07-26T05:41:58.858Z,88.80
2017-07-26T05:44:25.119Z,89.00
2017-07-26T05:46:51.359Z,89.10
2017-07-26T05:49:17.633Z,88.20
2017-07-26T05:51:43.895Z,88.20
2017-07-26T05:54:10.196Z,88.10
2017-07-26T05:56:36.421Z,87.30
2017-07-26T05:59:02.659Z,87.70
2017-07-26T06:01:29.120Z,87.80
2017-07-26T06:03:55.384Z,87.50
2017-07-26T06:06:21.709Z,86.40
2017-07-26T06:08:47.956Z,86.90
2017-07-26T06:11:14.204Z,87.10
2017-07-26T06:13:40.466Z,86.90
2017-07-26T06:17:35.898Z,86.60
2017-07-26T06:20:02.155Z,86.40
2017-07-26T06:22:28.407Z,86.20
2017-07-26T06:24:54.661Z,86.40
2017-07-26T06:27:20.894Z,86.00
2017-07-26T06:29:47.147Z,85.80
2017-07-26T06:32:13.387Z,84.40
2017-07-26T06:34:39.648Z,85.70
2017-07-26T06:37:05.925Z,85.40
2017-07-26T06:39:32.665Z,83.90
2017-07-26T06:41:58.932Z,83.60
2017-07-26T06:44:25.399Z,82.30
2017-07-26T06:46:51.693Z,83.60
2017-07-26T06:49:19.108Z,83.20
2017-07-26T06:51:45.362Z,82.00
2017-07-26T06:54:11.619Z,82.30
2017-07-26T06:56:38.162Z,81.80
2017-07-26T06:59:04.417Z,81.90
2017-07-26T07:01:30.870Z,83.70
2017-07-26T07:03:57.172Z,82.60
2017-07-26T07:06:23.465Z,82.20
2017-07-26T07:08:49.692Z,82.10
2017-07-26T07:11:15.920Z,80.50
2017-07-26T07:13:42.181Z,80.20
2017-07-26T07:17:35.207Z,78.70
2017-07-26T07:20:01.484Z,80.30
2017-07-26T07:22:27.862Z,79.70
2017-07-26T07:24:54.136Z,79.10
2017-07-26T07:27:20.391Z,76.80
2017-07-26T07:29:46.661Z,76.80
2017-07-26T07:32:12.919Z,80.40
2017-07-26T07:34:39.404Z,78.90
2017-07-26T07:37:05.877Z,77.40
2017-07-26T07:39:32.125Z,77.10
2017-07-26T07:41:58.453Z,71.90
2017-07-26T07:44:24.709Z,73.20
2017-07-26T07:46:50.973Z,73.70
2017-07-26T07:49:17.220Z,71.90
2017-07-26T07:51:43.452Z,73.10
2017-07-26T07:54:09.907Z,71.50
2017-07-26T07:56:36.342Z,71.80
2017-07-26T07:59:02.782Z,70.30
2017-07-26T08:01:29.079Z,71.00
2017-07-26T08:03:55.328Z,69.10
2017-07-26T08:06:21.613Z,68.50
2017-07-26T08:08:47.853Z,68.70
2017-07-26T08:11:14.104Z,66.30
2017-07-26T08:13:40.357Z,61.30
2017-07-26T08:17:35.348Z,61.00
2017-07-26T08:20:02.641Z,58.30
2017-07-26T08:22:28.869Z,58.40
2017-07-26T08:24:55.130Z,60.00
2017-07-26T08:27:21.389Z,60.20
2017-07-26T08:29:47.918Z,56.60
2017-07-26T08:32:14.234Z,55.90
2017-07-26T08:34:40.481Z,55.80
2017-07-26T08:37:06.750Z,55.90
2017-07-26T08:39:32.987Z,55.80
2017-07-26T08:41:59.341Z,56.10
2017-07-26T08:44:25.620Z,54.70
2017-07-26T08:46:51.863Z,53.50
2017-07-26T08:49:18.099Z,50.90
2017-07-26T08:51:44.384Z,54.90
2017-07-26T08:54:10.620Z,57.00
2017-07-26T08:56:37.171Z,53.40
2017-07-26T08:59:03.618Z,52.20
2017-07-26T09:01:30.084Z,51.70
2017-07-26T09:03:56.376Z,50.10
2017-07-26T09:06:22.668Z,49.80
2017-07-26T09:08:49.146Z,52.30
2017-07-26T09:11:15.368Z,46.20
2017-07-26T09:13:41.601Z,46.40
2017-07-26T09:17:35.885Z,48.70
2017-07-26T09:20:02.152Z,49.70
2017-07-26T09:22:28.441Z,51.00
2017-07-26T09:24:54.831Z,47.90
2017-07-26T09:27:21.309Z,49.90
2017-07-26T09:29:47.541Z,49.50
2017-07-26T09:32:13.785Z,50.70
2017-07-26T09:34:40.033Z,51.40
2017-07-26T09:37:06.269Z,52.10
2017-07-26T09:39:32.535Z,53.00
2017-07-26T09:41:58.780Z,48.50
2017-07-26T09:44:25.030Z,48.60
2017-07-26T09:46:51.267Z,49.10
2017-07-26T09:49:17.516Z,48.00
2017-07-26T09:51:43.748Z,49.20
2017-07-26T09:54:10.060Z,45.70
2017-07-26T09:56:36.469Z,45.30
2017-07-26T09:59:02.732Z,45.30
2017-07-26T10:01:29.448Z,46.90
2017-07-26T10:03:55.885Z,49.50
2017-07-26T10:06:22.266Z,46.10
2017-07-26T10:08:48.559Z,44.30
2017-07-26T10:11:14.800Z,44.50
2017-07-26T10:13:41.184Z,45.50
2017-07-26T10:17:35.943Z,44.70
2017-07-26T10:20:02.201Z,44.10
2017-07-26T10:22:28.836Z,44.60
2017-07-26T10:24:55.065Z,43.00
2017-07-26T10:27:21.311Z,48.20
2017-07-26T10:29:47.566Z,45.00
2017-07-26T10:32:13.804Z,45.30
2017-07-26T10:34:40.069Z,45.10
2017-07-26T10:37:06.304Z,45.30
2017-07-26T10:39:32.548Z,44.70
2017-07-26T10:41:58.803Z,41.30
2017-07-26T10:44:25.065Z,50.90
2017-07-26T10:46:51.344Z,43.30
2017-07-26T10:49:17.924Z,42.60
2017-07-26T10:51:44.185Z,42.60
2017-07-26T10:54:10.677Z,35.80
2017-07-26T10:56:36.916Z,37.50
2017-07-26T10:59:03.456Z,38.60
2017-07-26T11:01:29.716Z,39.20
2017-07-26T11:03:55.968Z,41.40
2017-07-26T11:06:22.239Z,39.90
2017-07-26T11:08:48.536Z,38.00
2017-07-26T11:11:14.864Z,38.10
2017-07-26T11:13:41.116Z,40.00
2017-07-26T11:17:35.456Z,39.70
2017-07-26T11:20:02.120Z,41.00
2017-07-26T11:35:35.924Z,37.70
2017-07-26T11:38:02.192Z,37.00
2017-07-26T11:40:28.454Z,37.70
2017-07-26T11:42:54.693Z,37.60
2017-07-26T11:45:20.944Z,38.50
2017-07-26T11:47:47.176Z,36.90
2017-07-26T11:50:13.571Z,39.10
2017-07-26T11:52:39.842Z,36.30
2017-07-26T11:55:06.084Z,35.10
2017-07-26T11:57:32.345Z,36.70
2017-07-26T11:59:58.606Z,36.50
2017-07-26T12:02:24.897Z,37.00
2017-07-26T12:04:51.125Z,36.80
2017-07-26T12:07:17.372Z,37.70
2017-07-26T12:09:43.622Z,36.90
2017-07-26T12:12:09.876Z,35.00
2017-07-26T12:14:36.134Z,35.70
2017-07-26T12:17:36.161Z,37.40
2017-07-26T12:20:02.413Z,35.90
2017-07-26T12:22:28.656Z,36.30
2017-07-26T12:24:54.921Z,36.70
2017-07-26T12:27:21.145Z,35.70
2017-07-26T12:29:47.384Z,36.50
2017-07-26T12:32:13.623Z,35.60
2017-07-26T12:34:39.875Z,34.80
2017-07-26T12:37:06.128Z,37.30
2017-07-26T12:39:32.372Z,35.90
2017-07-26T12:41:58.625Z,34.70
2017-07-26T12:44:24.863Z,34.60
2017-07-26T12:46:52.560Z,38.90
2017-07-26T12:49:18.794Z,37.70
2017-07-26T12:51:45.036Z,36.20
2017-07-26T12:54:11.289Z,37.70
2017-07-26T12:56:38.280Z,35.70
2017-07-26T12:59:04.551Z,35.60
2017-07-26T13:01:30.798Z,34.50
2017-07-26T13:03:57.053Z,34.30
2017-07-26T13:06:23.308Z,35.60
2017-07-26T13:08:49.531Z,37.60
2017-07-26T13:11:15.795Z,37.10
2017-07-26T13:13:42.801Z,36.20
2017-07-26T13:17:35.876Z,35.20
2017-07-26T13:20:02.528Z,35.70
2017-07-26T13:22:28.768Z,36.30
2017-07-26T13:24:54.998Z,34.70
2017-07-26T13:27:21.253Z,36.90
2017-07-26T13:29:47.528Z,33.40
2017-07-26T13:32:13.777Z,35.40
2017-07-26T13:34:40.024Z,33.10
2017-07-26T13:37:06.256Z,35.70
2017-07-26T13:39:39.760Z,34.90
2017-07-26T13:42:06.038Z,33.30
2017-07-26T13:44:32.299Z,35.30
2017-07-26T13:46:59.309Z,34.70
2017-07-26T13:49:25.557Z,34.30
2017-07-26T13:51:52.275Z,37.20
2017-07-26T13:54:18.577Z,34.00
2017-07-26T13:56:44.829Z,36.10
2017-07-26T13:59:11.100Z,33.20
2017-07-26T14:01:37.347Z,35.90
2017-07-26T14:04:03.585Z,31.80
2017-07-26T14:06:29.866Z,32.60
2017-07-26T14:08:56.149Z,32.00
2017-07-26T14:11:22.387Z,32.50
2017-07-26T14:13:48.632Z,32.00
2017-07-26T14:17:35.624Z,32.20
2017-07-26T14:20:02.093Z,33.50
2017-07-26T14:22:28.342Z,36.10
2017-07-26T14:24:54.583Z,34.80
2017-07-26T14:27:20.826Z,34.00
2017-07-26T14:29:47.124Z,34.70
2017-07-26T14:32:13.356Z,34.00
2017-07-26T14:34:39.641Z,33.10
2017-07-26T14:37:05.937Z,32.80
2017-07-26T14:39:32.169Z,33.40
2017-07-26T14:41:58.432Z,33.20
2017-07-26T14:44:24.691Z,33.30
2017-07-26T14:46:50.929Z,34.00
2017-07-26T14:49:17.169Z,35.00
2017-07-26T14:51:43.425Z,38.80
2017-07-26T14:54:09.732Z,35.50
2017-07-26T14:56:35.971Z,34.00
2017-07-26T14:59:02.203Z,34.00
2017-07-26T15:01:28.439Z,35.30
2017-07-26T15:03:54.701Z,34.50
2017-07-26T15:06:21.036Z,36.40
2017-07-26T15:08:47.276Z,33.60
2017-07-26T15:11:13.521Z,33.60
2017-07-26T15:13:39.773Z,33.20
2017-07-26T15:17:35.384Z,34.80
2017-07-26T15:20:01.636Z,33.90
2017-07-26T15:22:27.882Z,32.50
2017-07-26T15:24:54.139Z,36.00
2017-07-26T15:27:20.588Z,33.70
2017-07-26T15:29:47.573Z,34.10
2017-07-26T15:32:13.834Z,33.90
2017-07-26T15:34:40.076Z,32.40
2017-07-26T15:37:06.316Z,33.00
2017-07-26T15:39:32.540Z,36.90
2017-07-26T15:41:58.795Z,36.50
2017-07-26T15:44:25.053Z,34.80
2017-07-26T15:46:51.288Z,35.70
2017-07-26T15:49:17.529Z,34.60
2017-07-26T15:51:43.758Z,34.40
2017-07-26T15:54:09.992Z,36.20
2017-07-26T15:56:36.259Z,36.20
2017-07-26T15:59:02.498Z,36.90
2017-07-26T16:01:28.784Z,36.90
2017-07-26T16:03:55.036Z,36.00
2017-07-26T16:06:21.284Z,37.40
2017-07-26T16:08:47.545Z,37.40
2017-07-26T16:11:13.778Z,36.80
2017-07-26T16:13:40.031Z,43.80
2017-07-26T16:17:35.640Z,39.20
2017-07-26T16:20:01.958Z,39.30
2017-07-26T16:22:28.204Z,40.40
2017-07-26T16:24:54.458Z,39.80
2017-07-26T16:27:20.728Z,40.30
2017-07-26T16:29:46.969Z,42.40
2017-07-26T16:32:13.228Z,39.20
2017-07-26T16:34:39.470Z,45.20
2017-07-26T16:37:05.720Z,42.50
2017-07-26T16:39:31.941Z,42.90
2017-07-26T16:41:58.198Z,43.40
2017-07-26T16:44:24.520Z,41.90
2017-07-26T16:46:50.781Z,40.90
2017-07-26T16:49:17.008Z,40.00
2017-07-26T16:51:43.236Z,44.20
2017-07-26T16:54:09.461Z,42.50
2017-07-26T16:56:35.807Z,41.80
2017-07-26T16:59:02.396Z,43.40
2017-07-26T17:01:29.166Z,43.80
2017-07-26T17:03:55.624Z,46.60
2017-07-26T17:06:21.913Z,44.00
2017-07-26T17:08:48.363Z,45.90
2017-07-26T17:11:14.632Z,47.90
2017-07-26T17:13:41.619Z,48.00
2017-07-26T17:17:36.038Z,47.50
2017-07-26T17:20:02.408Z,50.00
2017-07-26T17:35:14.693Z,49.90
2017-07-26T17:37:41.044Z,49.00
2017-07-26T17:40:07.361Z,49.20
2017-07-26T17:42:33.791Z,49.40
2017-07-26T17:45:00.132Z,49.20
2017-07-26T17:47:26.409Z,51.90
2017-07-26T17:49:52.861Z,51.60
2017-07-26T17:52:19.093Z,50.70
2017-07-26T17:54:45.470Z,51.50
2017-07-26T17:57:11.954Z,52.50
2017-07-26T17:59:38.452Z,51.60
2017-07-26T18:02:04.881Z,52.60
2017-07-26T18:04:31.188Z,52.70
2017-07-26T18:06:57.438Z,52.30
2017-07-26T18:09:23.713Z,52.70
2017-07-26T18:11:49.972Z,55.30
2017-07-26T18:14:16.217Z,55.10
2017-07-26T18:17:36.043Z,52.90
2017-07-26T18:20:03.072Z,50.50
2017-07-26T18:22:29.406Z,50.30
2017-07-26T18:24:55.761Z,48.10
2017-07-26T18:27:22.333Z,48.40
2017-07-26T18:29:48.658Z,48.60
2017-07-26T18:32:14.975Z,47.70
2017-07-26T18:34:41.276Z,47.90
2017-07-26T18:37:07.566Z,47.00
2017-07-26T18:39:33.831Z,46.80
2017-07-26T18:42:00.092Z,47.30
2017-07-26T18:44:26.368Z,47.80
2017-07-26T18:46:52.652Z,49.30
2017-07-26T18:49:18.926Z,50.80
2017-07-26T18:51:45.215Z,52.80
2017-07-26T18:54:11.498Z,54.70
2017-07-26T18:56:37.753Z,55.40
2017-07-26T18:59:04.022Z,56.90
2017-07-26T19:01:30.280Z,57.60
2017-07-26T19:03:56.560Z,59.60
2017-07-26T19:06:22.847Z,60.20
2017-07-26T19:08:49.132Z,61.90
2017-07-26T19:11:15.400Z,64.90
2017-07-26T19:13:41.661Z,66.30
2017-07-26T19:17:35.721Z,68.50
2017-07-26T19:20:02.003Z,71.30
2017-07-26T19:22:28.286Z,72.80
2017-07-26T19:24:54.562Z,75.90
2017-07-26T19:27:20.816Z,75.20
2017-07-26T19:29:47.100Z,76.80
2017-07-26T19:32:13.354Z,78.30
2017-07-26T19:34:39.623Z,80.10
2017-07-26T19:37:05.869Z,80.90
2017-07-26T19:39:32.147Z,80.70
2017-07-26T19:41:58.470Z,81.50
2017-07-26T19:44:24.730Z,82.00
2017-07-26T19:46:51.001Z,83.50
2017-07-26T19:49:17.256Z,82.10
2017-07-26T19:51:43.533Z,83.00
2017-07-26T19:54:09.861Z,83.90
2017-07-26T19:56:36.506Z,86.50
2017-07-26T19:59:02.780Z,87.90
2017-07-26T20:01:29.042Z,88.40
2017-07-26T20:03:55.297Z,89.00
2017-07-26T20:06:21.638Z,89.10
2017-07-26T20:08:47.926Z,89.20
2017-07-26T20:11:14.248Z,90.20
2017-07-26T20:13:40.517Z,89.40
2017-07-26T20:17:36.567Z,90.00
2017-07-26T20:20:02.884Z,90.50
2017-07-26T20:22:29.161Z,89.70
2017-07-26T20:24:55.432Z,89.70
2017-07-26T20:27:21.695Z,90.10
2017-07-26T20:29:47.961Z,89.10
2017-07-26T20:32:14.270Z,88.50
2017-07-26T20:34:40.581Z,89.70
2017-07-26T20:37:06.836Z,89.20
2017-07-26T20:39:33.161Z,88.20
2017-07-26T20:41:59.449Z,89.50
2017-07-26T20:44:25.737Z,88.80
2017-07-26T20:46:52.005Z,89.50
2017-07-26T20:49:18.263Z,88.90
2017-07-26T20:51:44.519Z,90.10
2017-07-26T20:54:10.803Z,90.00
2017-07-26T20:56:37.138Z,90.10
2017-07-26T20:59:03.410Z,90.30
2017-07-26T21:01:29.693Z,89.90
2017-07-26T21:03:55.939Z,89.40
2017-07-26T21:06:22.245Z,89.70
2017-07-26T21:08:48.987Z,89.60
2017-07-26T21:11:15.243Z,90.40
2017-07-26T21:13:41.516Z,90.20
2017-07-26T21:17:35.757Z,90.30
2017-07-26T21:20:02.041Z,90.30
2017-07-26T21:22:28.310Z,90.30
2017-07-26T21:24:54.605Z,90.30
2017-07-26T21:27:20.872Z,90.30
2017-07-26T21:29:47.135Z,90.20
2017-07-26T21:32:13.425Z,90.40
2017-07-26T21:34:39.680Z,90.00
2017-07-26T21:37:05.929Z,90.70
2017-07-26T21:39:32.188Z,90.40
2017-07-26T21:41:58.453Z,90.40
2017-07-26T21:44:24.709Z,90.20
2017-07-26T21:46:50.965Z,90.50
2017-07-26T21:49:17.210Z,90.80
2017-07-26T21:51:43.482Z,90.40
2017-07-26T21:54:09.748Z,90.70
2017-07-26T21:56:36.382Z,90.50
2017-07-26T21:59:02.657Z,90.30
2017-07-26T22:01:28.928Z,90.30
2017-07-26T22:03:55.212Z,90.20
2017-07-26T22:06:21.484Z,90.70
2017-07-26T22:08:47.760Z,90.50
2017-07-26T22:11:14.012Z,90.40
2017-07-26T22:13:40.299Z,90.40
2017-07-26T22:17:36.112Z,90.40
2017-07-26T22:20:02.394Z,90.20
2017-07-26T22:22:28.703Z,90.70
2017-07-26T22:24:54.949Z,91.30
2017-07-26T22:27:21.231Z,90.30
2017-07-26T22:29:47.488Z,91.10
2017-07-26T22:32:13.764Z,90.80
2017-07-26T22:34:40.090Z,90.70
2017-07-26T22:37:06.356Z,90.70
2017-07-26T22:39:32.892Z,91.00
2017-07-26T22:41:59.145Z,90.40
2017-07-26T22:44:25.386Z,90.50
2017-07-26T22:46:51.700Z,90.30
2017-07-26T22:49:17.964Z,90.60
2017-07-26T22:51:44.225Z,90.40
2017-07-26T22:54:10.489Z,90.40
2017-07-26T22:56:36.751Z,90.40
2017-07-26T22:59:03.100Z,90.50
2017-07-26T23:01:29.347Z,90.40
2017-07-26T23:03:55.589Z,90.40
2017-07-26T23:06:21.856Z,90.50
2017-07-26T23:08:48.098Z,90.60
2017-07-26T23:11:14.407Z,90.80
2017-07-26T23:13:40.658Z,91.10
2017-07-26T23:17:36.925Z,91.20
2017-07-26T23:20:03.187Z,91.60
2017-07-26T23:22:29.466Z,91.60
2017-07-26T23:39:39.876Z,92.90
2017-07-26T23:42:06.128Z,92.30
2017-07-26T23:44:32.433Z,92.60
2017-07-26T23:46:58.673Z,92.20
2017-07-26T23:49:24.912Z,92.50
2017-07-26T23:51:51.163Z,91.70
2017-07-26T23:54:17.445Z,91.30
2017-07-26T23:56:50.650Z,91.60
2017-07-26T23:59:16.890Z,91.60
